sensor_id;sensor_type;location;lat;lon;timestamp;pressure;altitude;pressure_sealevel;temperature;humidity
48244;BME280;34053;51.088;6.572;2023-02-20T00:02:00;102095.06;;;7.15;78.66
48244;BME280;34053;51.088;6.572;2023-02-20T00:04:31;102098.28;;;6.87;79.53
48244;BME280;34053;51.088;6.572;2023-02-20T00:07:01;102086.38;;;7.16;78.26
48244;BME280;34053;51.088;6.572;2023-02-20T00:09:31;102081.22;;;7.22;78.33
48244;BME280;34053;51.088;6.572;2023-02-20T00:12:02;102088.09;;;7.12;78.26
48244;BME280;34053;51.088;6.572;2023-02-20T00:14:32;102077.44;;;6.89;78.79
48244;BME280;34053;51.088;6.572;2023-02-20T00:17:03;102073.28;;;7.09;78.57
48244;BME280;34053;51.088;6.572;2023-02-20T00:19:33;102082.78;;;7.01;78.75
48244;BME280;34053;51.088;6.572;2023-02-20T00:22:04;102069.69;;;6.97;78.89
48244;BME280;34053;51.088;6.572;2023-02-20T00:24:35;102074.88;;;6.93;78.51
48244;BME280;34053;51.088;6.572;2023-02-20T00:27:05;102072.91;;;6.74;79.81
48244;BME280;34053;51.088;6.572;2023-02-20T00:29:36;102069.44;;;6.75;79.14
48244;BME280;34053;51.088;6.572;2023-02-20T00:32:09;102059.84;;;6.69;79.69
48244;BME280;34053;51.088;6.572;2023-02-20T00:34:39;102073.00;;;6.80;78.95
48244;BME280;34053;51.088;6.572;2023-02-20T00:37:10;102067.00;;;6.90;78.71
48244;BME280;34053;51.088;6.572;2023-02-20T00:39:40;102067.63;;;6.66;79.43
48244;BME280;34053;51.088;6.572;2023-02-20T00:42:11;102068.63;;;6.79;79.29
48244;BME280;34053;51.088;6.572;2023-02-20T00:44:41;102068.78;;;6.95;78.47
48244;BME280;34053;51.088;6.572;2023-02-20T00:47:12;102060.88;;;6.85;78.55
48244;BME280;34053;51.088;6.572;2023-02-20T00:49:42;102055.59;;;6.77;78.89
48244;BME280;34053;51.088;6.572;2023-02-20T00:52:13;102054.88;;;6.94;78.04
48244;BME280;34053;51.088;6.572;2023-02-20T00:54:43;102052.19;;;6.86;78.76
48244;BME280;34053;51.088;6.572;2023-02-20T00:57:14;102053.88;;;6.81;78.41
48244;BME280;34053;51.088;6.572;2023-02-20T00:59:44;102052.09;;;6.77;78.85
48244;BME280;34053;51.088;6.572;2023-02-20T01:02:14;102043.34;;;6.72;78.90
48244;BME280;34053;51.088;6.572;2023-02-20T01:04:45;102032.78;;;6.59;79.30
48244;BME280;34053;51.088;6.572;2023-02-20T01:07:16;102029.38;;;6.64;79.07
48244;BME280;34053;51.088;6.572;2023-02-20T01:09:46;102024.06;;;6.56;79.26
48244;BME280;34053;51.088;6.572;2023-02-20T01:12:16;102020.59;;;6.58;79.49
48244;BME280;34053;51.088;6.572;2023-02-20T01:14:47;102010.31;;;6.71;79.06
48244;BME280;34053;51.088;6.572;2023-02-20T01:17:17;102012.06;;;6.72;78.97
48244;BME280;34053;51.088;6.572;2023-02-20T01:19:48;102006.69;;;6.59;79.13
48244;BME280;34053;51.088;6.572;2023-02-20T01:22:18;102005.13;;;6.77;79.10
48244;BME280;34053;51.088;6.572;2023-02-20T01:24:49;102005.69;;;6.43;79.88
48244;BME280;34053;51.088;6.572;2023-02-20T01:27:19;102006.59;;;6.50;79.51
48244;BME280;34053;51.088;6.572;2023-02-20T01:29:50;101996.13;;;6.44;79.38
48244;BME280;34053;51.088;6.572;2023-02-20T01:32:20;101992.59;;;6.42;79.42
48244;BME280;34053;51.088;6.572;2023-02-20T01:34:51;101992.59;;;6.39;79.80
48244;BME280;34053;51.088;6.572;2023-02-20T01:37:21;101985.63;;;6.41;79.67
48244;BME280;34053;51.088;6.572;2023-02-20T01:39:52;101978.75;;;6.46;79.52
48244;BME280;34053;51.088;6.572;2023-02-20T01:42:24;101967.38;;;6.36;79.82
48244;BME280;34053;51.088;6.572;2023-02-20T01:45:13;101972.66;;;6.45;79.42
48244;BME280;34053;51.088;6.572;2023-02-20T01:47:44;101972.59;;;6.38;80.08
48244;BME280;34053;51.088;6.572;2023-02-20T01:50:17;101966.53;;;6.39;80.05
48244;BME280;34053;51.088;6.572;2023-02-20T01:52:51;101977.75;;;6.32;80.48
48244;BME280;34053;51.088;6.572;2023-02-20T01:55:26;101969.94;;;6.32;80.39
48244;BME280;34053;51.088;6.572;2023-02-20T01:58:05;101975.94;;;6.27;80.69
48244;BME280;34053;51.088;6.572;2023-02-20T02:00:38;101985.63;;;6.36;80.28
48244;BME280;34053;51.088;6.572;2023-02-20T02:03:11;101982.00;;;6.25;80.85
48244;BME280;34053;51.088;6.572;2023-02-20T02:05:46;101985.63;;;6.38;80.56
48244;BME280;34053;51.088;6.572;2023-02-20T02:08:18;101981.16;;;6.29;80.83
48244;BME280;34053;51.088;6.572;2023-02-20T02:11:01;101971.69;;;6.36;80.41
48244;BME280;34053;51.088;6.572;2023-02-20T02:13:34;101968.09;;;6.24;81.09
48244;BME280;34053;51.088;6.572;2023-02-20T02:16:27;101968.19;;;6.30;80.74
48244;BME280;34053;51.088;6.572;2023-02-20T02:27:34;101941.28;;;6.35;80.93
48244;BME280;34053;51.088;6.572;2023-02-20T02:33:33;101938.69;;;6.36;80.85
48244;BME280;34053;51.088;6.572;2023-02-20T02:36:43;101935.19;;;6.34;80.76
48244;BME280;34053;51.088;6.572;2023-02-20T02:39:45;101931.66;;;6.27;80.89
48244;BME280;34053;51.088;6.572;2023-02-20T02:42:36;101922.97;;;6.28;80.97
48244;BME280;34053;51.088;6.572;2023-02-20T02:48:05;101908.28;;;6.38;81.13
48244;BME280;34053;51.088;6.572;2023-02-20T02:50:39;101915.13;;;6.27;81.44
48244;BME280;34053;51.088;6.572;2023-02-20T02:53:14;101912.44;;;6.19;81.48
48244;BME280;34053;51.088;6.572;2023-02-20T02:55:45;101908.97;;;6.20;81.64
48244;BME280;34053;51.088;6.572;2023-02-20T02:58:16;101900.31;;;6.23;81.72
48244;BME280;34053;51.088;6.572;2023-02-20T03:00:57;101892.56;;;6.29;81.61
48244;BME280;34053;51.088;6.572;2023-02-20T03:03:33;101896.91;;;6.27;81.53
48244;BME280;34053;51.088;6.572;2023-02-20T03:06:18;101907.19;;;6.13;82.19
48244;BME280;34053;51.088;6.572;2023-02-20T03:08:58;101894.22;;;6.21;81.83
48244;BME280;34053;51.088;6.572;2023-02-20T03:11:31;101893.38;;;6.23;81.69
48244;BME280;34053;51.088;6.572;2023-02-20T03:14:15;101899.47;;;6.22;81.94
48244;BME280;34053;51.088;6.572;2023-02-20T03:19:45;101891.53;;;6.11;82.15
48244;BME280;34053;51.088;6.572;2023-02-20T03:22:56;101893.44;;;6.29;81.20
48244;BME280;34053;51.088;6.572;2023-02-20T03:25:33;101897.84;;;6.37;80.93
48244;BME280;34053;51.088;6.572;2023-02-20T03:28:30;101887.28;;;6.23;81.05
48244;BME280;34053;51.088;6.572;2023-02-20T03:31:03;101883.72;;;6.14;81.62
48244;BME280;34053;51.088;6.572;2023-02-20T03:33:50;101871.59;;;6.17;81.49
48244;BME280;34053;51.088;6.572;2023-02-20T03:36:51;101872.44;;;6.14;81.69
48244;BME280;34053;51.088;6.572;2023-02-20T03:39:44;101867.25;;;6.17;81.32
48244;BME280;34053;51.088;6.572;2023-02-20T03:42:36;101858.59;;;6.20;80.99
48244;BME280;34053;51.088;6.572;2023-02-20T03:45:30;101860.22;;;6.07;81.64
48244;BME280;34053;51.088;6.572;2023-02-20T03:48:07;101862.13;;;6.23;80.91
48244;BME280;34053;51.088;6.572;2023-02-20T03:50:39;101869.75;;;6.05;81.27
48244;BME280;34053;51.088;6.572;2023-02-20T03:53:28;101863.69;;;6.09;81.65
48244;BME280;34053;51.088;6.572;2023-02-20T03:56:02;101863.69;;;6.06;81.20
48244;BME280;34053;51.088;6.572;2023-02-20T03:58:36;101875.91;;;6.13;81.10
48244;BME280;34053;51.088;6.572;2023-02-20T04:01:09;101869.75;;;6.05;81.53
48244;BME280;34053;51.088;6.572;2023-02-20T04:03:43;101860.00;;;5.91;82.08
48244;BME280;34053;51.088;6.572;2023-02-20T04:06:16;101863.53;;;5.96;81.99
48244;BME280;34053;51.088;6.572;2023-02-20T04:09:03;101865.19;;;5.88;82.11
48244;BME280;34053;51.088;6.572;2023-02-20T04:11:40;101856.50;;;5.86;82.36
48244;BME280;34053;51.088;6.572;2023-02-20T04:14:13;101857.38;;;5.88;81.60
48244;BME280;34053;51.088;6.572;2023-02-20T04:16:49;101865.19;;;5.88;81.93
48244;BME280;34053;51.088;6.572;2023-02-20T04:19:21;101862.69;;;5.97;81.47
48244;BME280;34053;51.088;6.572;2023-02-20T04:22:01;101858.28;;;5.90;81.63
48244;BME280;34053;51.088;6.572;2023-02-20T04:24:50;101860.84;;;5.89;82.21
48244;BME280;34053;51.088;6.572;2023-02-20T04:27:21;101869.47;;;5.83;81.77
48244;BME280;34053;51.088;6.572;2023-02-20T04:29:52;101861.81;;;5.97;81.79
48244;BME280;34053;51.088;6.572;2023-02-20T04:32:22;101863.44;;;5.87;81.90
48244;BME280;34053;51.088;6.572;2023-02-20T04:34:53;101868.59;;;5.81;82.51
48244;BME280;34053;51.088;6.572;2023-02-20T04:37:23;101857.38;;;5.88;82.23
48244;BME280;34053;51.088;6.572;2023-02-20T04:39:54;101859.94;;;5.85;82.55
48244;BME280;34053;51.088;6.572;2023-02-20T04:42:25;101864.34;;;5.89;82.31
48244;BME280;34053;51.088;6.572;2023-02-20T04:44:55;101852.19;;;5.91;81.59
48244;BME280;34053;51.088;6.572;2023-02-20T04:47:26;101844.25;;;5.80;82.49
48244;BME280;34053;51.088;6.572;2023-02-20T04:49:56;101845.97;;;5.77;82.73
48244;BME280;34053;51.088;6.572;2023-02-20T04:52:27;101846.91;;;5.83;82.31
48244;BME280;34053;51.088;6.572;2023-02-20T04:54:57;101851.28;;;5.86;82.44
48244;BME280;34053;51.088;6.572;2023-02-20T04:57:28;101857.22;;;5.76;82.78
48244;BME280;34053;51.088;6.572;2023-02-20T04:59:58;101850.31;;;5.79;82.44
48244;BME280;34053;51.088;6.572;2023-02-20T05:02:29;101849.47;;;5.79;82.31
48244;BME280;34053;51.088;6.572;2023-02-20T05:04:59;101848.63;;;5.81;82.80
48244;BME280;34053;51.088;6.572;2023-02-20T05:07:29;101853.84;;;5.83;82.24
48244;BME280;34053;51.088;6.572;2023-02-20T05:10:00;101841.59;;;5.76;82.70
48244;BME280;34053;51.088;6.572;2023-02-20T05:12:30;101856.44;;;5.80;82.66
48244;BME280;34053;51.088;6.572;2023-02-20T05:15:01;101852.88;;;5.75;82.79
48244;BME280;34053;51.088;6.572;2023-02-20T05:17:31;101851.06;;;5.64;83.45
48244;BME280;34053;51.088;6.572;2023-02-20T05:20:03;101847.53;;;5.62;83.12
48244;BME280;34053;51.088;6.572;2023-02-20T05:22:33;101853.66;;;5.64;83.75
48244;BME280;34053;51.088;6.572;2023-02-20T05:25:04;101850.16;;;5.61;83.18
48244;BME280;34053;51.088;6.572;2023-02-20T05:27:35;101841.44;;;5.57;83.70
48244;BME280;34053;51.088;6.572;2023-02-20T05:30:06;101840.47;;;5.50;84.06
48244;BME280;34053;51.088;6.572;2023-02-20T05:32:37;101835.38;;;5.60;83.79
48244;BME280;34053;51.088;6.572;2023-02-20T05:35:07;101837.03;;;5.53;83.69
48244;BME280;34053;51.088;6.572;2023-02-20T05:37:37;101837.03;;;5.53;83.69
48244;BME280;34053;51.088;6.572;2023-02-20T05:40:08;101837.13;;;5.61;83.97
48244;BME280;34053;51.088;6.572;2023-02-20T05:42:40;101826.66;;;5.56;84.17
48244;BME280;34053;51.088;6.572;2023-02-20T05:45:10;101835.31;;;5.55;84.18
48244;BME280;34053;51.088;6.572;2023-02-20T05:47:41;101838.75;;;5.53;84.31
48244;BME280;34053;51.088;6.572;2023-02-20T05:50:11;101841.31;;;5.48;84.51
48244;BME280;34053;51.088;6.572;2023-02-20T05:52:42;101836.13;;;5.49;84.27
48244;BME280;34053;51.088;6.572;2023-02-20T05:55:14;101846.53;;;5.49;84.42
48244;BME280;34053;51.088;6.572;2023-02-20T05:57:44;101837.03;;;5.53;84.34
48244;BME280;34053;51.088;6.572;2023-02-20T06:00:15;101837.03;;;5.53;84.19
48244;BME280;34053;51.088;6.572;2023-02-20T06:02:45;101836.19;;;5.56;84.54
48244;BME280;34053;51.088;6.572;2023-02-20T06:05:16;101829.94;;;5.43;84.38
48244;BME280;34053;51.088;6.572;2023-02-20T06:07:46;101824.75;;;5.43;84.85
48244;BME280;34053;51.088;6.572;2023-02-20T06:10:18;101831.63;;;5.38;84.99
48244;BME280;34053;51.088;6.572;2023-02-20T06:12:48;101825.59;;;5.42;85.09
48244;BME280;34053;51.088;6.572;2023-02-20T06:15:19;101830.78;;;5.40;84.89
48244;BME280;34053;51.088;6.572;2023-02-20T06:17:49;101829.94;;;5.40;85.02
48244;BME280;34053;51.088;6.572;2023-02-20T06:20:20;101835.09;;;5.36;85.35
48244;BME280;34053;51.088;6.572;2023-02-20T06:22:50;101835.13;;;5.40;85.05
48244;BME280;34053;51.088;6.572;2023-02-20T06:25:21;101836.00;;;5.39;85.72
48244;BME280;34053;51.088;6.572;2023-02-20T06:27:51;101836.00;;;5.39;85.79
48244;BME280;34053;51.088;6.572;2023-02-20T06:30:21;101842.91;;;5.36;85.73
48244;BME280;34053;51.088;6.572;2023-02-20T06:32:52;101842.00;;;5.33;85.86
48244;BME280;34053;51.088;6.572;2023-02-20T06:35:22;101846.41;;;5.42;85.92
48244;BME280;34053;51.088;6.572;2023-02-20T06:37:53;101847.19;;;5.31;86.25
48244;BME280;34053;51.088;6.572;2023-02-20T06:40:23;101834.13;;;5.28;86.29
48244;BME280;34053;51.088;6.572;2023-02-20T06:42:54;101854.22;;;5.39;85.88
48244;BME280;34053;51.088;6.572;2023-02-20T06:45:24;101857.66;;;5.38;85.79
48244;BME280;34053;51.088;6.572;2023-02-20T06:47:54;101863.72;;;5.36;85.63
48244;BME280;34053;51.088;6.572;2023-02-20T06:50:25;101861.19;;;5.41;85.87
48244;BME280;34053;51.088;6.572;2023-02-20T06:52:56;101869.84;;;5.40;85.87
48244;BME280;34053;51.088;6.572;2023-02-20T06:55:26;101859.44;;;5.42;85.71
48244;BME280;34053;51.088;6.572;2023-02-20T06:57:57;101860.25;;;5.36;85.72
48244;BME280;34053;51.088;6.572;2023-02-20T07:00:27;101870.00;;;5.54;85.16
48244;BME280;34053;51.088;6.572;2023-02-20T07:02:58;101873.41;;;5.48;85.65
48244;BME280;34053;51.088;6.572;2023-02-20T07:05:28;101872.66;;;5.57;85.28
48244;BME280;34053;51.088;6.572;2023-02-20T07:07:59;101878.75;;;5.59;84.98
48244;BME280;34053;51.088;6.572;2023-02-20T07:10:29;101874.44;;;5.61;85.41
48244;BME280;34053;51.088;6.572;2023-02-20T07:12:59;101882.19;;;5.55;85.66
48244;BME280;34053;51.088;6.572;2023-02-20T07:15:32;101880.34;;;5.48;85.80
48244;BME280;34053;51.088;6.572;2023-02-20T07:18:02;101879.53;;;5.52;85.19
48244;BME280;34053;51.088;6.572;2023-02-20T07:20:33;101882.13;;;5.52;84.40
48244;BME280;34053;51.088;6.572;2023-02-20T07:23:03;101878.63;;;5.50;85.13
48244;BME280;34053;51.088;6.572;2023-02-20T07:25:34;101889.09;;;5.53;84.92
48244;BME280;34053;51.088;6.572;2023-02-20T07:28:04;101882.91;;;5.45;85.18
48244;BME280;34053;51.088;6.572;2023-02-20T07:30:37;101890.66;;;5.42;84.41
48244;BME280;34053;51.088;6.572;2023-02-20T07:33:08;101881.22;;;5.48;84.35
48244;BME280;34053;51.088;6.572;2023-02-20T07:35:38;101890.78;;;5.48;84.86
48244;BME280;34053;51.088;6.572;2023-02-20T07:38:09;101883.75;;;5.41;84.87
48244;BME280;34053;51.088;6.572;2023-02-20T07:40:39;101883.75;;;5.41;85.06
48244;BME280;34053;51.088;6.572;2023-02-20T07:43:10;101889.84;;;5.44;84.48
48244;BME280;34053;51.088;6.572;2023-02-20T07:45:40;101882.91;;;5.45;84.76
48244;BME280;34053;51.088;6.572;2023-02-20T07:48:11;101881.16;;;5.44;84.67
48244;BME280;34053;51.088;6.572;2023-02-20T07:50:42;101882.00;;;5.43;84.38
48244;BME280;34053;51.088;6.572;2023-02-20T07:53:14;101875.03;;;5.39;84.43
48244;BME280;34053;51.088;6.572;2023-02-20T07:55:44;101877.66;;;5.40;84.44
48244;BME280;34053;51.088;6.572;2023-02-20T07:58:15;101875.88;;;5.36;84.68
48244;BME280;34053;51.088;6.572;2023-02-20T08:00:45;101878.56;;;5.44;84.02
48244;BME280;34053;51.088;6.572;2023-02-20T08:03:16;101883.75;;;5.41;84.14
48244;BME280;34053;51.088;6.572;2023-02-20T08:05:47;101871.63;;;5.44;84.14
48244;BME280;34053;51.088;6.572;2023-02-20T08:08:17;101888.06;;;5.42;84.27
48244;BME280;34053;51.088;6.572;2023-02-20T08:10:48;101882.91;;;5.46;83.94
48244;BME280;34053;51.088;6.572;2023-02-20T08:13:21;101886.50;;;5.55;84.12
48244;BME280;34053;51.088;6.572;2023-02-20T08:15:52;101885.56;;;5.49;84.04
48244;BME280;34053;51.088;6.572;2023-02-20T08:18:22;101872.41;;;5.37;84.50
48244;BME280;34053;51.088;6.572;2023-02-20T08:20:53;101879.47;;;5.47;84.35
48244;BME280;34053;51.088;6.572;2023-02-20T08:23:24;101882.91;;;5.43;83.95
48244;BME280;34053;51.088;6.572;2023-02-20T08:25:55;101888.03;;;5.39;83.85
48244;BME280;34053;51.088;6.572;2023-02-20T08:28:25;101882.00;;;5.43;83.90
48244;BME280;34053;51.088;6.572;2023-02-20T08:30:56;101876.91;;;5.50;83.35
48244;BME280;34053;51.088;6.572;2023-02-20T08:33:26;101882.13;;;5.52;83.86
48244;BME280;34053;51.088;6.572;2023-02-20T08:35:56;101888.97;;;5.44;84.25
48244;BME280;34053;51.088;6.572;2023-02-20T08:38:28;101882.97;;;5.48;84.17
48244;BME280;34053;51.088;6.572;2023-02-20T08:41:03;101880.31;;;5.45;84.20
48244;BME280;34053;51.088;6.572;2023-02-20T08:43:35;101879.53;;;5.50;84.18
48244;BME280;34053;51.088;6.572;2023-02-20T08:46:06;101882.06;;;5.44;83.87
48244;BME280;34053;51.088;6.572;2023-02-20T08:48:37;101875.13;;;5.46;84.60
48244;BME280;34053;51.088;6.572;2023-02-20T08:51:08;101880.38;;;5.51;84.71
48244;BME280;34053;51.088;6.572;2023-02-20T08:53:39;101879.59;;;5.57;83.81
48244;BME280;34053;51.088;6.572;2023-02-20T08:56:09;101880.47;;;5.57;83.79
48244;BME280;34053;51.088;6.572;2023-02-20T08:58:42;101870.94;;;5.59;84.40
48244;BME280;34053;51.088;6.572;2023-02-20T09:01:12;101876.19;;;5.61;84.29
48244;BME280;34053;51.088;6.572;2023-02-20T09:03:43;101876.13;;;5.58;84.48
48244;BME280;34053;51.088;6.572;2023-02-20T09:06:13;101887.53;;;5.67;84.34
48244;BME280;34053;51.088;6.572;2023-02-20T09:08:44;101883.22;;;5.68;84.36
48244;BME280;34053;51.088;6.572;2023-02-20T09:11:14;101884.09;;;5.70;84.58
48244;BME280;34053;51.088;6.572;2023-02-20T09:13:45;101892.84;;;5.77;83.88
48244;BME280;34053;51.088;6.572;2023-02-20T09:16:19;101876.41;;;5.81;84.54
48244;BME280;34053;51.088;6.572;2023-02-20T09:18:50;101879.94;;;5.88;84.36
48244;BME280;34053;51.088;6.572;2023-02-20T09:21:20;101879.09;;;5.89;84.61
48244;BME280;34053;51.088;6.572;2023-02-20T09:23:51;101876.47;;;5.86;84.47
48244;BME280;34053;51.088;6.572;2023-02-20T09:26:21;101866.06;;;5.89;84.00
48244;BME280;34053;51.088;6.572;2023-02-20T09:28:51;101868.75;;;5.96;83.98
48244;BME280;34053;51.088;6.572;2023-02-20T09:31:22;101867.78;;;5.87;83.76
48244;BME280;34053;51.088;6.572;2023-02-20T09:33:52;101890.44;;;5.95;84.31
48244;BME280;34053;51.088;6.572;2023-02-20T09:36:23;101879.22;;;5.99;84.42
48244;BME280;34053;51.088;6.572;2023-02-20T09:38:53;101870.59;;;6.04;84.32
48244;BME280;34053;51.088;6.572;2023-02-20T09:41:58;101877.56;;;6.08;84.34
48244;BME280;34053;51.088;6.572;2023-02-20T09:50:17;101887.22;;;6.15;83.80
48244;BME280;34053;51.088;6.572;2023-02-20T09:52:56;101879.41;;;6.15;83.52
48244;BME280;34053;51.088;6.572;2023-02-20T09:55:37;101899.41;;;6.19;83.78
48244;BME280;34053;51.088;6.572;2023-02-20T10:01:14;101897.66;;;6.17;83.55
48244;BME280;34053;51.088;6.572;2023-02-20T10:04:21;101884.69;;;6.23;83.20
48244;BME280;34053;51.088;6.572;2023-02-20T10:06:59;101896.84;;;6.25;84.38
48244;BME280;34053;51.088;6.572;2023-02-20T10:09:33;101891.75;;;6.35;84.10
48244;BME280;34053;51.088;6.572;2023-02-20T10:12:31;101885.63;;;6.31;83.70
48244;BME280;34053;51.088;6.572;2023-02-20T10:20:40;101870.06;;;6.39;83.03
48244;BME280;34053;51.088;6.572;2023-02-20T10:23:47;101868.31;;;6.39;83.36
48244;BME280;34053;51.088;6.572;2023-02-20T10:26:21;101876.13;;;6.38;83.65
48244;BME280;34053;51.088;6.572;2023-02-20T10:28:53;101878.75;;;6.39;83.20
48244;BME280;34053;51.088;6.572;2023-02-20T10:31:36;101874.44;;;6.43;83.37
48244;BME280;34053;51.088;6.572;2023-02-20T10:34:44;101879.69;;;6.46;82.93
48244;BME280;34053;51.088;6.572;2023-02-20T10:37:19;101880.53;;;6.45;83.22
48244;BME280;34053;51.088;6.572;2023-02-20T10:39:59;101876.22;;;6.47;83.21
48244;BME280;34053;51.088;6.572;2023-02-20T10:42:43;101880.63;;;6.53;82.96
48244;BME280;34053;51.088;6.572;2023-02-20T10:46:22;101888.44;;;6.54;83.03
48244;BME280;34053;51.088;6.572;2023-02-20T10:48:22;101891.91;;;6.53;83.49
48244;BME280;34053;51.088;6.572;2023-02-20T10:51:14;101884.13;;;6.58;82.84
48244;BME280;34053;51.088;6.572;2023-02-20T10:56:54;101877.13;;;6.54;82.74
48244;BME280;34053;51.088;6.572;2023-02-20T11:02:26;101869.41;;;6.65;82.60
48244;BME280;34053;51.088;6.572;2023-02-20T11:05:02;101857.16;;;6.56;83.00
48244;BME280;34053;51.088;6.572;2023-02-20T11:07:35;101859.81;;;6.59;83.07
48244;BME280;34053;51.088;6.572;2023-02-20T11:10:05;101852.88;;;6.66;83.19
48244;BME280;34053;51.088;6.572;2023-02-20T11:13:03;101858.13;;;6.69;83.07
48244;BME280;34053;51.088;6.572;2023-02-20T11:15:34;101856.44;;;6.77;83.06
48244;BME280;34053;51.088;6.572;2023-02-20T11:18:18;101854.69;;;6.73;82.87
48244;BME280;34053;51.088;6.572;2023-02-20T11:20:52;101850.34;;;6.73;82.64
48244;BME280;34053;51.088;6.572;2023-02-20T11:23:41;101853.81;;;6.74;82.96
48244;BME280;34053;51.088;6.572;2023-02-20T11:26:24;101835.56;;;6.75;82.79
48244;BME280;34053;51.088;6.572;2023-02-20T11:29:02;101845.13;;;6.72;82.94
48244;BME280;34053;51.088;6.572;2023-02-20T11:31:34;101843.41;;;6.75;82.68
48244;BME280;34053;51.088;6.572;2023-02-20T11:34:04;101840.78;;;6.77;82.46
48244;BME280;34053;51.088;6.572;2023-02-20T11:36:42;101850.38;;;6.78;82.64
48244;BME280;34053;51.088;6.572;2023-02-20T11:39:26;101836.50;;;6.85;82.85
48244;BME280;34053;51.088;6.572;2023-02-20T11:42:24;101819.09;;;6.84;82.15
48244;BME280;34053;51.088;6.572;2023-02-20T11:45:18;101819.09;;;6.84;82.41
48244;BME280;34053;51.088;6.572;2023-02-20T11:48:17;101822.59;;;6.88;82.70
48244;BME280;34053;51.088;6.572;2023-02-20T11:50:51;101826.94;;;6.90;82.79
48244;BME280;34053;51.088;6.572;2023-02-20T11:53:27;101825.22;;;6.92;82.73
48244;BME280;34053;51.088;6.572;2023-02-20T11:56:10;101817.41;;;6.92;82.24
48244;BME280;34053;51.088;6.572;2023-02-20T11:58:41;101826.97;;;6.95;82.14
48244;BME280;34053;51.088;6.572;2023-02-20T12:01:33;101827.88;;;6.97;82.31
48244;BME280;34053;51.088;6.572;2023-02-20T12:04:17;101820.94;;;7.01;82.61
48244;BME280;34053;51.088;6.572;2023-02-20T12:06:48;101821.78;;;6.97;82.29
48244;BME280;34053;51.088;6.572;2023-02-20T12:09:23;101810.50;;;6.98;82.69
48244;BME280;34053;51.088;6.572;2023-02-20T12:11:55;101813.06;;;6.96;82.26
48244;BME280;34053;51.088;6.572;2023-02-20T12:14:26;101803.53;;;7.00;83.14
48244;BME280;34053;51.088;6.572;2023-02-20T12:17:24;101793.13;;;7.03;82.78
48244;BME280;34053;51.088;6.572;2023-02-20T12:20:08;101785.31;;;7.07;82.89
48244;BME280;34053;51.088;6.572;2023-02-20T12:28:33;101779.22;;;7.02;82.67
48244;BME280;34053;51.088;6.572;2023-02-20T12:31:21;101780.09;;;7.06;82.99
48244;BME280;34053;51.088;6.572;2023-02-20T12:36:42;101783.56;;;7.08;82.44
48244;BME280;34053;51.088;6.572;2023-02-20T12:47:40;101780.94;;;7.06;83.36
48244;BME280;34053;51.088;6.572;2023-02-20T13:01:22;101760.97;;;7.08;83.53
48244;BME280;34053;51.088;6.572;2023-02-20T13:06:33;101760.09;;;7.13;83.79
48244;BME280;34053;51.088;6.572;2023-02-20T13:09:13;101767.94;;;7.16;84.00
48244;BME280;34053;51.088;6.572;2023-02-20T13:11:49;101764.44;;;7.12;83.89
48244;BME280;34053;51.088;6.572;2023-02-20T13:14:33;101771.44;;;7.19;83.50
48244;BME280;34053;51.088;6.572;2023-02-20T13:20:24;101756.66;;;7.24;83.88
48244;BME280;34053;51.088;6.572;2023-02-20T13:23:03;101755.78;;;7.24;83.85
48244;BME280;34053;51.088;6.572;2023-02-20T13:25:42;101740.97;;;7.24;84.32
48244;BME280;34053;51.088;6.572;2023-02-20T13:31:17;101719.22;;;7.18;84.30
48244;BME280;34053;51.088;6.572;2023-02-20T13:33:50;101706.16;;;7.16;84.69
48244;BME280;34053;51.088;6.572;2023-02-20T13:46:58;101678.34;;;7.23;85.09
48244;BME280;34053;51.088;6.572;2023-02-20T13:52:37;101650.50;;;7.27;85.17
48244;BME280;34053;51.088;6.572;2023-02-20T13:58:31;101659.19;;;7.25;85.41
48244;BME280;34053;51.088;6.572;2023-02-20T14:00:54;101638.34;;;7.22;85.70
48244;BME280;34053;51.088;6.572;2023-02-20T14:03:30;101632.22;;;7.25;85.69
48244;BME280;34053;51.088;6.572;2023-02-20T14:06:07;101622.66;;;7.24;85.92
48244;BME280;34053;51.088;6.572;2023-02-20T14:08:40;101611.34;;;7.30;85.97
48244;BME280;34053;51.088;6.572;2023-02-20T14:11:33;101622.66;;;7.35;85.58
48244;BME280;34053;51.088;6.572;2023-02-20T14:14:16;101607.00;;;7.35;86.51
48244;BME280;34053;51.088;6.572;2023-02-20T14:16:51;101593.09;;;7.36;85.62
48244;BME280;34053;51.088;6.572;2023-02-20T14:19:25;101579.16;;;7.35;85.63
48244;BME280;34053;51.088;6.572;2023-02-20T14:27:32;101586.09;;;7.32;85.76
48244;BME280;34053;51.088;6.572;2023-02-20T14:30:14;101587.88;;;7.39;85.81
48244;BME280;34053;51.088;6.572;2023-02-20T14:32:48;101609.59;;;7.41;85.46
48244;BME280;34053;51.088;6.572;2023-02-20T14:38:21;101620.06;;;7.46;84.76
48244;BME280;34053;51.088;6.572;2023-02-20T14:40:55;101607.88;;;7.48;85.16
48244;BME280;34053;51.088;6.572;2023-02-20T14:43:27;101610.50;;;7.48;85.78
48244;BME280;34053;51.088;6.572;2023-02-20T14:46:06;101616.56;;;7.48;85.02
48244;BME280;34053;51.088;6.572;2023-02-20T14:48:37;101612.22;;;7.56;84.81
48244;BME280;34053;51.088;6.572;2023-02-20T14:53:41;101625.28;;;7.61;84.31
48244;BME280;34053;51.088;6.572;2023-02-20T14:56:17;101630.53;;;7.58;84.28
48244;BME280;34053;51.088;6.572;2023-02-20T14:58:47;101627.03;;;7.57;84.23
48244;BME280;34053;51.088;6.572;2023-02-20T15:01:35;101624.44;;;7.64;84.51
48244;BME280;34053;51.088;6.572;2023-02-20T15:04:14;101635.72;;;7.55;84.30
48244;BME280;34053;51.088;6.572;2023-02-20T15:06:47;101626.16;;;7.60;84.25
48244;BME280;34053;51.088;6.572;2023-02-20T15:09:19;101616.59;;;7.65;83.70
48244;BME280;34053;51.088;6.572;2023-02-20T15:11:55;101625.28;;;7.58;83.51
48244;BME280;34053;51.088;6.572;2023-02-20T15:14:28;101614.84;;;7.55;83.40
48244;BME280;34053;51.088;6.572;2023-02-20T15:17:06;101619.22;;;7.59;83.33
48244;BME280;34053;51.088;6.572;2023-02-20T15:19:39;101623.56;;;7.60;83.38
48244;BME280;34053;51.088;6.572;2023-02-20T15:22:31;101614.84;;;7.63;83.80
48244;BME280;34053;51.088;6.572;2023-02-20T15:28:08;101627.88;;;7.61;83.32